Time;durP1;ratioP1;P1;durP2;ratioP2;P2;SDS_P1;SDS_P2;PMS_P1;PMS_P2;Temp;Humidity;BMP_temperature;BMP_pressure;BME280_temperature;BME280_humidity;BME280_pressure;Samples;Min_cycle;Max_cycle;Signal;HPM_P1;HPM_P2
2022/01/26 00:00:58;;;;;;;18.70;6.13;;;3.60;99.90;;;;;;5090301;28;20044;-75
2022/01/26 00:06:12;;;;;;;16.75;7.85;;;3.60;99.90;;;;;;5092650;28;20048;-76
2022/01/26 00:08:39;;;;;;;12.98;5.90;;;2.90;99.90;;;;;;5068643;28;20044;-76
2022/01/26 00:11:05;;;;;;;13.15;5.25;;;3.10;99.90;;;;;;5076718;28;20047;-76
2022/01/26 00:13:31;;;;;;;12.43;5.93;;;2.90;99.90;;;;;;5072343;28;20041;-75
2022/01/26 00:15:59;;;;;;;15.70;5.78;;;2.70;99.90;;;;;;5070220;28;20041;-75
2022/01/26 00:18:29;;;;;;;9.30;3.00;;;2.60;99.90;;;;;;5080077;28;20032;-77
2022/01/26 00:21:04;;;;;;;13.98;5.38;;;2.90;99.90;;;;;;5093412;28;20055;-76
2022/01/26 00:24:02;;;;;;;7.47;4.03;;;2.60;99.90;;;;;;5091773;28;20415;-76
2022/01/26 00:29:10;;;;;;;13.30;5.35;;;2.70;99.90;;;;;;5052429;28;20059;-76
2022/01/26 00:40:07;;;;;;;14.73;5.50;;;3.30;99.90;;;;;;5083989;28;20052;-77
2022/01/26 00:42:37;;;;;;;17.95;6.38;;;2.80;99.90;;;;;;5075200;28;20424;-76
2022/01/26 00:45:08;;;;;;;9.50;3.85;;;3.70;99.90;;;;;;5075356;28;20529;-76
2022/01/26 00:47:34;;;;;;;12.63;5.32;;;2.90;99.90;;;;;;5071433;28;20056;-77
2022/01/26 00:50:05;;;;;;;20.55;6.43;;;2.60;99.90;;;;;;5071553;28;20075;-77
2022/01/26 00:52:42;;;;;;;15.35;5.90;;;3.00;99.90;;;;;;5066798;28;20098;-77
2022/01/26 00:55:12;;;;;;;14.30;5.65;;;3.40;99.90;;;;;;5088616;28;20098;-77
2022/01/26 00:57:38;;;;;;;8.18;2.90;;;2.90;99.90;;;;;;5088229;28;20080;-76
2022/01/26 01:00:08;;;;;;;15.68;5.70;;;2.70;99.90;;;;;;5068633;28;21246;-77
2022/01/26 01:02:33;;;;;;;16.42;6.30;;;2.80;99.90;;;;;;5088390;28;20036;-76
2022/01/26 01:05:03;;;;;;;11.95;6.10;;;2.90;99.90;;;;;;5069528;28;20044;-76
2022/01/26 01:07:33;;;;;;;15.15;5.00;;;3.50;99.90;;;;;;5071326;28;20471;-75
2022/01/26 01:09:59;;;;;;;17.75;5.70;;;3.40;99.90;;;;;;5073566;28;20045;-76
2022/01/26 01:12:25;;;;;;;15.68;7.38;;;2.70;99.90;;;;;;5089172;28;20460;-76
2022/01/26 01:14:51;;;;;;;3.58;2.17;;;3.50;99.90;;;;;;5070219;28;20076;-76
2022/01/26 01:17:24;;;;;;;13.98;6.38;;;2.50;99.90;;;;;;5088577;28;20075;-76
2022/01/26 01:20:11;;;;;;;9.13;4.47;;;3.00;99.90;;;;;;5072463;28;20044;-76
2022/01/26 01:30:41;;;;;;;8.02;3.25;;;2.80;99.90;;;;;;5090530;28;20037;-75
2022/01/26 01:33:09;;;;;;;10.65;4.07;;;3.50;99.90;;;;;;5086935;28;21072;-77
2022/01/26 01:35:39;;;;;;;7.30;3.90;;;2.70;99.90;;;;;;5088708;28;20037;-75
2022/01/26 01:38:10;;;;;;;13.98;4.32;;;3.30;99.90;;;;;;5091162;28;20040;-75
2022/01/26 01:40:38;;;;;;;5.63;2.80;;;2.70;99.90;;;;;;5068472;28;20461;-76
2022/01/26 01:43:05;;;;;;;7.78;3.55;;;2.60;99.90;;;;;;5090990;28;20036;-75
2022/01/26 01:45:45;;;;;;;10.63;3.60;;;2.90;99.90;;;;;;5093678;28;20442;-76
2022/01/26 01:48:13;;;;;;;8.23;4.38;;;3.30;99.90;;;;;;5072351;28;20129;-76
2022/01/26 01:50:41;;;;;;;11.88;4.72;;;4.30;99.90;;;;;;5074072;28;20537;-76
2022/01/26 01:53:08;;;;;;;9.30;2.97;;;2.80;99.90;;;;;;5081567;28;20047;-76
2022/01/26 01:55:41;;;;;;;11.32;3.95;;;2.90;99.90;;;;;;5084205;28;20118;-76
2022/01/26 01:58:08;;;;;;;13.43;4.53;;;2.80;99.90;;;;;;5075328;28;20049;-75
2022/01/26 02:00:36;;;;;;;8.50;3.65;;;2.80;99.90;;;;;;5088297;28;20047;-76
2022/01/26 02:03:02;;;;;;;7.03;2.88;;;2.80;99.90;;;;;;5085480;28;20115;-75
2022/01/26 02:05:28;;;;;;;5.80;3.25;;;3.30;99.90;;;;;;5066805;28;20346;-75
2022/01/26 02:07:54;;;;;;;10.32;4.85;;;2.80;99.90;;;;;;5069505;28;20043;-76
2022/01/26 02:10:22;;;;;;;9.23;3.85;;;2.80;99.90;;;;;;5081825;28;20045;-75
2022/01/26 02:12:52;;;;;;;7.53;3.40;;;3.10;99.90;;;;;;5085922;28;20472;-75
2022/01/26 02:15:23;;;;;;;10.13;3.75;;;2.50;99.90;;;;;;5072135;28;20253;-75
2022/01/26 02:18:16;;;;;;;12.15;3.58;;;2.80;99.90;;;;;;5087041;28;20102;-76
2022/01/26 02:56:42;;;;;;;7.68;4.97;;;2.50;99.90;;;;;;5089288;28;20071;-77
2022/01/26 03:01:48;;;;;;;9.05;5.22;;;2.40;99.90;;;;;;5086482;28;20049;-77
2022/01/26 03:07:17;;;;;;;11.95;3.90;;;3.00;99.90;;;;;;5084121;28;20041;-76
2022/01/26 03:09:49;;;;;;;10.43;4.50;;;2.60;99.90;;;;;;5067527;28;20081;-76
2022/01/26 03:12:25;;;;;;;10.30;3.57;;;2.60;99.90;;;;;;5068262;28;20479;-76
2022/01/26 03:14:56;;;;;;;12.23;4.38;;;3.00;99.90;;;;;;5088639;28;20262;-76
2022/01/26 03:20:14;;;;;;;9.00;3.83;;;2.90;99.90;;;;;;5059438;28;20055;-76
2022/01/26 03:33:24;;;;;;;9.75;4.95;;;2.70;99.90;;;;;;5087220;28;20584;-76
2022/01/26 03:35:55;;;;;;;14.00;4.25;;;2.60;99.90;;;;;;5069445;28;20592;-76
2022/01/26 03:38:43;;;;;;;10.88;3.47;;;2.70;99.90;;;;;;5089462;28;20885;-76
2022/01/26 03:43:43;;;;;;;12.75;3.80;;;2.50;99.90;;;;;;5082237;28;20571;-76
2022/01/26 03:46:10;;;;;;;12.77;4.82;;;2.70;99.90;;;;;;5069420;28;20036;-76
2022/01/26 03:48:36;;;;;;;11.13;5.65;;;3.90;99.90;;;;;;5068382;28;20139;-76
2022/01/26 03:51:01;;;;;;;11.02;4.28;;;2.70;99.90;;;;;;5065273;28;20532;-76
2022/01/26 03:53:27;;;;;;;13.80;4.65;;;3.40;99.90;;;;;;5090840;28;20040;-76
2022/01/26 03:55:53;;;;;;;13.00;6.45;;;2.70;99.90;;;;;;5065708;28;20915;-76
2022/01/26 03:58:19;;;;;;;14.20;5.70;;;2.90;99.90;;;;;;5084430;28;20048;-76
2022/01/26 04:00:45;;;;;;;13.90;4.88;;;2.60;99.90;;;;;;5086141;28;20445;-76
2022/01/26 04:03:10;;;;;;;11.88;5.40;;;2.70;99.90;;;;;;5086286;28;20045;-75
2022/01/26 04:05:36;;;;;;;14.13;5.95;;;2.60;99.90;;;;;;5089877;28;20069;-76
2022/01/26 04:08:09;;;;;;;11.63;5.50;;;2.80;99.90;;;;;;5095589;28;20040;-76
2022/01/26 04:13:19;;;;;;;14.25;4.28;;;2.80;99.90;;;;;;5092493;28;19998;-76
2022/01/26 04:15:45;;;;;;;16.92;5.38;;;2.60;99.90;;;;;;5088458;28;20040;-76
2022/01/26 04:18:15;;;;;;;15.95;4.75;;;3.10;99.90;;;;;;5087655;28;20122;-76
2022/01/26 04:20:46;;;;;;;6.30;5.03;;;2.70;99.90;;;;;;5086850;28;21348;-76
2022/01/26 04:23:39;;;;;;;10.93;3.40;;;3.80;99.90;;;;;;5085563;28;20052;-76
2022/01/26 04:26:00;;;;;;;6.90;3.65;;;3.30;99.90;;;;;;5085001;28;20060;-76
2022/01/26 04:28:33;;;;;;;15.60;4.75;;;3.50;99.90;;;;;;5067360;28;20188;-76
2022/01/26 04:30:58;;;;;;;14.40;5.60;;;2.70;99.90;;;;;;5084231;28;20040;-76
2022/01/26 04:33:24;;;;;;;12.93;4.40;;;2.60;99.90;;;;;;5084597;28;20051;-77
2022/01/26 04:35:50;;;;;;;12.80;4.82;;;4.10;99.90;;;;;;5069282;28;20045;-76
2022/01/26 04:40:59;;;;;;;14.25;4.53;;;2.60;99.90;;;;;;5091887;28;20044;-76
2022/01/26 04:43:29;;;;;;;16.33;5.40;;;3.70;99.90;;;;;;5093113;28;20128;-76
2022/01/26 04:45:55;;;;;;;10.43;4.22;;;2.60;99.90;;;;;;5087352;28;20120;-76
2022/01/26 04:48:20;;;;;;;16.25;5.05;;;2.60;99.90;;;;;;5085300;28;20036;-76
2022/01/26 04:50:46;;;;;;;14.55;5.35;;;3.10;99.90;;;;;;5065120;28;20053;-76
2022/01/26 04:53:15;;;;;;;13.88;5.28;;;3.30;99.90;;;;;;5084907;28;20041;-76
2022/01/26 04:55:41;;;;;;;11.45;4.35;;;2.50;99.90;;;;;;5092432;28;20048;-75
2022/01/26 04:58:06;;;;;;;17.17;6.63;;;2.90;99.90;;;;;;5071659;28;20577;-76
2022/01/26 05:00:32;;;;;;;21.25;9.00;;;2.60;99.90;;;;;;5071574;28;20131;-77
2022/01/26 05:02:58;;;;;;;20.25;6.68;;;2.70;99.90;;;;;;5090185;28;20048;-76
2022/01/26 05:05:24;;;;;;;17.85;5.78;;;2.80;99.90;;;;;;5074747;28;20163;-76
2022/01/26 05:07:49;;;;;;;11.88;5.78;;;2.90;99.90;;;;;;5075417;28;20033;-76
2022/01/26 05:10:15;;;;;;;16.13;5.30;;;2.90;99.90;;;;;;5087703;28;20140;-75
2022/01/26 05:12:41;;;;;;;15.98;6.25;;;2.80;99.90;;;;;;5077267;28;20067;-75
2022/01/26 05:15:07;;;;;;;19.17;7.65;;;3.20;99.90;;;;;;5090897;28;20049;-76
2022/01/26 05:17:35;;;;;;;21.50;5.88;;;3.10;99.90;;;;;;5089028;28;20581;-76
2022/01/26 05:20:01;;;;;;;13.63;6.60;;;3.10;99.90;;;;;;5068811;28;20051;-76
2022/01/26 05:22:29;;;;;;;15.77;5.55;;;2.80;99.90;;;;;;5072115;28;20113;-76
2022/01/26 05:24:55;;;;;;;11.57;5.50;;;3.00;99.90;;;;;;5086125;28;20028;-76
2022/01/26 05:27:20;;;;;;;16.55;6.35;;;2.70;99.90;;;;;;5090210;28;20040;-76
2022/01/26 05:29:46;;;;;;;21.05;6.20;;;2.90;99.90;;;;;;5095342;28;20576;-76
2022/01/26 05:32:12;;;;;;;19.23;5.60;;;2.90;99.90;;;;;;5086323;28;20053;-76
2022/01/26 05:34:37;;;;;;;13.65;5.55;;;2.90;99.90;;;;;;5087581;28;20056;-77
2022/01/26 05:37:03;;;;;;;16.90;5.88;;;3.20;99.90;;;;;;5068597;28;20469;-75
2022/01/26 05:39:31;;;;;;;14.00;5.53;;;2.80;99.90;;;;;;5088598;28;20051;-75
2022/01/26 05:41:57;;;;;;;16.33;5.95;;;2.90;99.90;;;;;;5071777;28;20593;-76
2022/01/26 05:44:23;;;;;;;24.42;6.28;;;3.00;99.90;;;;;;5086977;28;20043;-76
2022/01/26 05:46:50;;;;;;;19.65;5.80;;;2.70;99.90;;;;;;5086389;28;20044;-76
2022/01/26 05:49:17;;;;;;;21.70;6.97;;;2.80;99.90;;;;;;5093190;28;20206;-76
2022/01/26 05:51:46;;;;;;;12.13;5.57;;;2.90;99.90;;;;;;5078166;28;20043;-76
2022/01/26 05:54:13;;;;;;;17.05;6.78;;;3.00;99.90;;;;;;5066211;28;20036;-76
2022/01/26 05:56:42;;;;;;;24.27;6.55;;;3.80;99.90;;;;;;5092368;28;20075;-76
2022/01/26 05:59:08;;;;;;;18.00;5.55;;;3.00;99.90;;;;;;5073121;28;20032;-76
2022/01/26 06:01:35;;;;;;;13.88;6.05;;;3.00;99.90;;;;;;5099706;28;20123;-76
2022/01/26 06:04:01;;;;;;;23.65;5.97;;;3.10;99.90;;;;;;5073133;28;20126;-76
2022/01/26 06:06:26;;;;;;;23.70;6.68;;;2.90;99.90;;;;;;5095375;28;20517;-76
2022/01/26 06:08:52;;;;;;;17.38;5.53;;;3.90;99.90;;;;;;5068699;28;20035;-76
2022/01/26 06:11:18;;;;;;;28.80;7.60;;;3.10;99.90;;;;;;5091154;28;20114;-76
2022/01/26 06:13:44;;;;;;;18.70;7.45;;;3.60;99.90;;;;;;5086372;28;20048;-76
2022/01/26 06:16:10;;;;;;;20.42;6.78;;;3.10;99.90;;;;;;5071848;28;20047;-76
2022/01/26 06:18:36;;;;;;;21.63;6.22;;;2.90;99.90;;;;;;5087147;28;20037;-76
2022/01/26 06:21:03;;;;;;;20.08;6.60;;;4.80;99.90;;;;;;5074169;28;20064;-77
2022/01/26 06:23:29;;;;;;;26.67;10.52;;;3.10;99.90;;;;;;5066770;28;20056;-76
2022/01/26 06:25:58;;;;;;;25.15;7.72;;;3.00;99.90;;;;;;5065050;28;20037;-76
2022/01/26 06:28:27;;;;;;;21.55;9.55;;;3.30;99.90;;;;;;5086622;28;20037;-76
2022/01/26 06:30:59;;;;;;;24.60;6.75;;;3.10;99.90;;;;;;5064260;28;20036;-78
2022/01/26 06:33:25;;;;;;;24.13;6.82;;;3.00;99.90;;;;;;5085525;28;20085;-76
2022/01/26 06:35:52;;;;;;;24.20;9.40;;;4.00;99.90;;;;;;5082997;28;20038;-78
2022/01/26 06:38:17;;;;;;;19.63;7.72;;;3.80;99.90;;;;;;5064020;28;20437;-78
2022/01/26 06:40:43;;;;;;;18.92;7.35;;;3.40;99.90;;;;;;5069056;28;20044;-78
2022/01/26 06:43:14;;;;;;;30.85;9.70;;;3.40;99.90;;;;;;5085709;28;20051;-79
2022/01/26 06:45:54;;;;;;;26.37;7.77;;;3.10;99.90;;;;;;5065767;28;20589;-78
2022/01/26 06:51:04;;;;;;;22.80;8.45;;;3.20;99.90;;;;;;5085304;28;20045;-78
2022/01/26 06:53:31;;;;;;;21.20;8.40;;;3.20;99.90;;;;;;5068806;28;20927;-78
2022/01/26 06:55:59;;;;;;;24.98;8.25;;;4.10;99.90;;;;;;5086024;28;20100;-78
2022/01/26 06:58:25;;;;;;;23.67;8.18;;;4.20;99.90;;;;;;5080554;28;20119;-78
2022/01/26 07:00:50;;;;;;;19.95;7.75;;;2.90;99.90;;;;;;5072911;28;20560;-79
2022/01/26 07:03:16;;;;;;;22.20;8.07;;;3.60;99.90;;;;;;5063274;28;20467;-78
2022/01/26 07:05:44;;;;;;;25.77;10.05;;;4.40;99.90;;;;;;5084016;28;20048;-78
2022/01/26 07:08:14;;;;;;;22.13;7.60;;;3.60;99.90;;;;;;5065787;28;20047;-79
2022/01/26 07:10:47;;;;;;;21.75;9.18;;;3.30;99.90;;;;;;5082207;28;20040;-79
2022/01/26 07:13:16;;;;;;;27.10;9.95;;;3.30;99.90;;;;;;5065026;28;20047;-79
2022/01/26 07:21:44;;;;;;;23.13;10.30;;;3.20;99.90;;;;;;5087208;28;20128;-76
2022/01/26 07:24:19;;;;;;;25.05;11.63;;;2.40;99.90;;;;;;5083466;28;20045;-76
2022/01/26 07:26:50;;;;;;;20.85;7.88;;;2.60;99.90;;;;;;5084523;28;20130;-76
2022/01/26 07:29:23;;;;;;;20.50;6.40;;;2.50;99.90;;;;;;5066129;28;20070;-76
2022/01/26 07:31:54;;;;;;;26.15;10.23;;;3.40;99.90;;;;;;5067517;28;20264;-75
2022/01/26 07:34:23;;;;;;;24.30;9.57;;;3.60;99.90;;;;;;5083292;28;20522;-78
2022/01/26 07:36:53;;;;;;;23.60;8.80;;;4.00;99.90;;;;;;5087148;28;20258;-77
2022/01/26 07:39:42;;;;;;;27.90;8.73;;;3.80;99.90;;;;;;5088009;28;20094;-77
2022/01/26 07:42:14;;;;;;;24.33;9.98;;;4.90;99.90;;;;;;5085449;28;20045;-77
2022/01/26 07:44:55;;;;;;;27.45;11.00;;;4.10;99.90;;;;;;5076827;28;20037;-79
2022/01/26 07:47:23;;;;;;;26.13;10.88;;;3.90;99.90;;;;;;5067774;28;20044;-76
2022/01/26 07:50:06;;;;;;;26.67;9.68;;;4.40;99.90;;;;;;5086928;28;20223;-76
2022/01/26 07:52:42;;;;;;;21.08;9.05;;;2.40;99.90;;;;;;5087246;28;20048;-77
2022/01/26 07:55:15;;;;;;;27.20;8.57;;;3.80;99.90;;;;;;5068508;28;20534;-77
2022/01/26 07:57:49;;;;;;;27.50;8.98;;;3.60;99.90;;;;;;5093833;28;20562;-77
2022/01/26 08:00:19;;;;;;;24.40;9.05;;;3.70;99.90;;;;;;5082845;28;20052;-77
2022/01/26 08:02:47;;;;;;;27.95;9.32;;;3.90;99.90;;;;;;5069270;28;20103;-77
2022/01/26 08:05:29;;;;;;;20.52;8.90;;;3.80;99.90;;;;;;5082501;28;20032;-77
2022/01/26 08:08:27;;;;;;;27.45;10.57;;;3.90;99.90;;;;;;5081892;28;20047;-77
2022/01/26 08:10:55;;;;;;;29.10;10.63;;;4.50;99.90;;;;;;5085108;28;20557;-77
2022/01/26 08:13:40;;;;;;;31.23;10.73;;;4.00;99.90;;;;;;5071993;28;20701;-77
2022/01/26 08:16:09;;;;;;;27.98;10.32;;;4.70;99.90;;;;;;5082801;28;20135;-77
2022/01/26 08:19:01;;;;;;;24.63;10.15;;;5.40;99.90;;;;;;5081708;28;20556;-77
2022/01/26 08:21:27;;;;;;;;;;;4.00;99.90;;;;;;5075590;28;20135;-77
2022/01/26 08:24:02;;;;;;;19.02;7.32;;;3.70;99.90;;;;;;5080623;28;20321;-77
2022/01/26 08:26:46;;;;;;;25.55;8.82;;;4.10;99.90;;;;;;5093736;28;20035;-77
2022/01/26 08:29:44;;;;;;;24.52;9.50;;;3.40;99.90;;;;;;5090405;28;20111;-77
2022/01/26 08:32:33;;;;;;;26.15;9.52;;;4.50;99.90;;;;;;5089867;28;20037;-77
2022/01/26 08:35:17;;;;;;;33.63;10.20;;;5.50;99.90;;;;;;5074546;28;20052;-78
2022/01/26 08:38:19;;;;;;;39.50;9.82;;;4.00;99.90;;;;;;5093508;28;20047;-77
2022/01/26 08:40:49;;;;;;;17.47;7.33;;;3.90;99.90;;;;;;5081824;28;20081;-77
2022/01/26 08:43:29;;;;;;;30.75;11.23;;;3.90;99.90;;;;;;5073907;28;20076;-77
2022/01/26 08:46:16;;;;;;;29.85;10.80;;;3.50;99.90;;;;;;5086514;28;20041;-79
2022/01/26 08:48:50;;;;;;;25.30;9.48;;;5.30;99.90;;;;;;5069361;28;20756;-77
2022/01/26 08:51:19;;;;;;;19.80;9.75;;;3.60;99.90;;;;;;5092313;28;20040;-78
2022/01/26 08:54:23;;;;;;;25.33;9.32;;;3.90;99.90;;;;;;5065378;28;20595;-78
2022/01/26 08:56:55;;;;;;;25.65;9.80;;;4.80;99.90;;;;;;5074372;28;20546;-78
2022/01/26 08:59:23;;;;;;;29.50;9.95;;;5.20;99.90;;;;;;5076154;28;20126;-78
2022/01/26 09:01:49;;;;;;;23.20;9.35;;;4.30;99.90;;;;;;5081940;28;20041;-78
2022/01/26 09:04:16;;;;;;;28.10;11.25;;;4.20;99.90;;;;;;5097419;28;20117;-77
2022/01/26 09:06:53;;;;;;;30.23;11.38;;;4.90;99.90;;;;;;5080533;28;20053;-78
2022/01/26 09:09:20;;;;;;;25.15;9.55;;;4.00;99.90;;;;;;5075044;28;20040;-77
2022/01/26 09:11:48;;;;;;;23.67;10.20;;;4.80;99.90;;;;;;5090365;28;20123;-77
2022/01/26 09:14:19;;;;;;;29.63;11.05;;;4.30;99.90;;;;;;5075292;28;20033;-78
2022/01/26 09:16:46;;;;;;;26.92;11.10;;;4.20;99.90;;;;;;5079776;28;20040;-78
2022/01/26 09:19:29;;;;;;;26.35;11.80;;;5.10;99.90;;;;;;5076651;28;20052;-78
2022/01/26 09:22:03;;;;;;;26.52;8.70;;;5.10;99.90;;;;;;5074678;28;20040;-78
2022/01/26 09:24:30;;;;;;;26.00;10.05;;;4.40;99.90;;;;;;5078184;28;20044;-78
2022/01/26 09:26:57;;;;;;;44.40;13.15;;;5.30;99.90;;;;;;5069449;28;20055;-77
2022/01/26 09:29:22;;;;;;;34.97;12.07;;;5.20;99.90;;;;;;5087783;28;20036;-78
2022/01/26 09:31:48;;;;;;;26.02;10.80;;;5.30;99.90;;;;;;5079332;28;20461;-78
2022/01/26 09:34:19;;;;;;;28.45;10.50;;;4.20;99.90;;;;;;5090415;28;20060;-78
2022/01/26 09:36:45;;;;;;;35.78;11.13;;;4.40;99.90;;;;;;5081995;28;20047;-79
2022/01/26 09:39:13;;;;;;;31.83;11.85;;;5.00;99.90;;;;;;5088196;28;20032;-78
2022/01/26 09:41:40;;;;;;;38.38;11.13;;;4.60;99.90;;;;;;5096276;28;20501;-77
2022/01/26 09:44:06;;;;;;;36.95;11.80;;;4.40;99.90;;;;;;5100103;28;20089;-78
2022/01/26 09:46:32;;;;;;;28.75;12.65;;;4.80;99.90;;;;;;5068187;28;20073;-78
2022/01/26 09:49:00;;;;;;;35.65;12.93;;;4.50;99.90;;;;;;5068795;28;20091;-77
2022/01/26 09:51:26;;;;;;;25.63;10.02;;;4.70;99.90;;;;;;5074795;28;20050;-78
2022/01/26 09:54:03;;;;;;;26.13;10.23;;;4.60;99.90;;;;;;5070693;28;20032;-78
2022/01/26 09:56:30;;;;;;;29.48;9.73;;;4.50;99.90;;;;;;5074337;28;20044;-78
2022/01/26 09:58:56;;;;;;;40.05;12.02;;;4.50;99.90;;;;;;5087706;28;20353;-78
2022/01/26 10:01:21;;;;;;;29.77;11.73;;;4.90;99.90;;;;;;5077988;28;20427;-78
2022/01/26 10:03:49;;;;;;;24.13;9.20;;;4.60;99.90;;;;;;5088702;28;20036;-78
2022/01/26 10:06:27;;;;;;;34.92;10.73;;;5.10;99.90;;;;;;5088467;28;20052;-78
2022/01/26 10:17:26;;;;;;;24.38;10.95;;;4.40;99.90;;;;;;5096650;28;20044;-77
2022/01/26 10:20:03;;;;;;;27.60;9.55;;;5.50;99.90;;;;;;5071756;28;20101;-78
2022/01/26 10:22:43;;;;;;;31.60;12.98;;;5.20;99.90;;;;;;5063842;28;20052;-78
2022/01/26 10:25:18;;;;;;;27.33;10.85;;;4.60;99.90;;;;;;5084860;27;20485;-77
2022/01/26 10:27:58;;;;;;;;;;;;;;;;;;;;;
2022/01/26 10:30:27;;;;;;;32.83;10.75;;;5.10;99.90;;;;;;5084860;28;40847;-77
2022/01/26 10:32:54;;;;;;;33.33;12.15;;;4.70;99.90;;;;;;5085298;28;20064;-78
2022/01/26 10:35:20;;;;;;;29.13;11.73;;;5.70;99.90;;;;;;5068662;28;20041;-78
2022/01/26 10:37:56;;;;;;;27.08;11.35;;;5.00;99.90;;;;;;5080093;28;20192;-77
2022/01/26 10:40:32;;;;;;;35.65;13.10;;;5.00;99.90;;;;;;5081232;28;20120;-77
2022/01/26 10:43:10;;;;;;;39.38;12.25;;;5.30;99.90;;;;;;5088627;28;20059;-78
2022/01/26 10:46:07;;;;;;;32.05;11.15;;;5.50;99.90;;;;;;5089709;28;20044;-78
2022/01/26 10:49:03;;;;;;;26.23;11.93;;;5.10;99.90;;;;;;5089496;28;20127;-78
2022/01/26 10:54:37;;;;;;;24.27;9.82;;;5.70;99.90;;;;;;5087661;28;20055;-77
2022/01/26 10:57:01;;;;;;;31.13;11.40;;;6.50;99.90;;;;;;5079320;28;20140;-78
2022/01/26 10:59:27;;;;;;;29.50;8.38;;;4.80;99.90;;;;;;5074819;28;20052;-78
2022/01/26 11:02:00;;;;;;;28.23;9.23;;;4.80;99.90;;;;;;5074137;28;20548;-78
2022/01/26 11:04:34;;;;;;;31.27;11.73;;;4.90;99.90;;;;;;5070510;28;20091;-78
2022/01/26 11:07:05;;;;;;;27.65;9.77;;;5.80;99.90;;;;;;5076212;28;20596;-78
2022/01/26 11:09:34;;;;;;;23.90;9.83;;;5.40;99.90;;;;;;5068616;28;20053;-78
2022/01/26 11:12:14;;;;;;;25.00;9.85;;;5.20;99.90;;;;;;5073270;28;20044;-78
2022/01/26 11:14:47;;;;;;;29.60;10.02;;;4.70;99.90;;;;;;5070735;28;20508;-78
2022/01/26 11:17:29;;;;;;;29.13;10.80;;;4.10;99.90;;;;;;5071644;28;20048;-78
2022/01/26 11:20:00;;;;;;;27.00;10.43;;;4.60;99.90;;;;;;5091746;28;20040;-78
2022/01/26 11:22:30;;;;;;;32.60;12.15;;;5.30;99.90;;;;;;5066999;28;20052;-78
2022/01/26 11:25:18;;;;;;;22.65;8.98;;;5.20;99.90;;;;;;5072949;28;20054;-78
2022/01/26 11:27:50;;;;;;;26.65;11.05;;;6.10;99.90;;;;;;5072987;28;20523;-80
2022/01/26 11:30:26;;;;;;;37.15;11.98;;;6.00;99.90;;;;;;5065262;28;20559;-78
2022/01/26 11:33:20;;;;;;;29.10;11.43;;;5.40;99.90;;;;;;5081978;28;20966;-78
2022/01/26 11:36:01;;;;;;;28.73;12.27;;;4.80;99.90;;;;;;5061853;28;20037;-78
2022/01/26 11:39:04;;;;;;;26.58;9.98;;;4.10;99.90;;;;;;5084606;28;20047;-78
2022/01/26 11:47:32;;;;;;;35.17;10.68;;;5.80;99.90;;;;;;5089459;28;20041;-78
2022/01/26 11:50:19;;;;;;;40.00;13.38;;;5.70;99.90;;;;;;5073045;28;20585;-78
2022/01/26 11:53:03;;;;;;;39.05;11.90;;;8.10;99.90;;;;;;5074110;28;20048;-77
2022/01/26 11:56:02;;;;;;;30.88;10.88;;;5.70;99.90;;;;;;5091258;28;20051;-78
2022/01/26 11:58:46;;;;;;;33.35;14.93;;;6.10;99.90;;;;;;5080754;28;20048;-78
2022/01/26 12:01:26;;;;;;;36.03;13.20;;;5.40;99.90;;;;;;5099968;28;20090;-78
2022/01/26 12:04:11;;;;;;;29.42;12.15;;;5.80;99.90;;;;;;5084372;27;20083;-77
2022/01/26 12:06:50;;;;;;;28.30;11.43;;;6.00;99.90;;;;;;5075724;28;20047;-78
2022/01/26 12:09:26;;;;;;;34.00;11.93;;;6.20;99.90;;;;;;5078021;28;20055;-77
2022/01/26 12:11:56;;;;;;;31.83;11.25;;;6.10;99.90;;;;;;5075336;28;20621;-79
2022/01/26 12:14:25;;;;;;;31.88;11.90;;;4.90;99.90;;;;;;5075859;28;20048;-78
2022/01/26 12:16:58;;;;;;;35.08;11.57;;;7.30;99.90;;;;;;5079141;28;20079;-77
2022/01/26 12:36:36;;;;;;;37.80;12.13;;;5.60;99.90;;;;;;5086499;28;20080;-77
2022/01/26 12:39:12;;;;;;;37.60;12.43;;;6.00;99.90;;;;;;5095859;28;20099;-77
2022/01/26 12:41:51;;;;;;;37.17;15.00;;;5.60;99.90;;;;;;5078323;28;20033;-77
2022/01/26 12:44:29;;;;;;;40.10;13.95;;;5.60;99.90;;;;;;5079061;28;20044;-77
2022/01/26 12:47:04;;;;;;;30.92;10.50;;;6.10;99.90;;;;;;5074570;28;20044;-77
2022/01/26 12:49:32;;;;;;;34.05;11.55;;;5.40;99.90;;;;;;5091629;28;20040;-77
2022/01/26 12:52:01;;;;;;;32.90;11.75;;;5.40;99.90;;;;;;5075118;28;21992;-77
2022/01/26 12:54:34;;;;;;;43.03;11.77;;;6.20;99.90;;;;;;5080603;28;20514;-78
2022/01/26 12:57:12;;;;;;;32.97;12.80;;;5.40;99.90;;;;;;5075158;28;20049;-77
2022/01/26 12:59:41;;;;;;;39.17;11.50;;;5.90;99.90;;;;;;5079976;28;20051;-77
2022/01/26 13:02:23;;;;;;;39.15;13.77;;;6.20;99.90;;;;;;5068742;28;20506;-77
2022/01/26 13:05:00;;;;;;;;;;;7.50;99.90;;;;;;5078957;28;20560;-77
2022/01/26 13:07:36;;;;;;;37.92;12.27;;;5.40;99.90;;;;;;5079202;28;19924;-77
2022/01/26 13:10:30;;;;;;;35.05;12.45;;;6.30;99.90;;;;;;5076842;28;20040;-77
2022/01/26 13:13:10;;;;;;;43.83;13.88;;;5.90;99.90;;;;;;5089261;28;20036;-78
2022/01/26 13:16:06;;;;;;;28.55;10.95;;;6.20;99.90;;;;;;5092442;28;20441;-77
2022/01/26 13:18:59;;;;;;;30.23;10.55;;;5.80;99.90;;;;;;5097766;28;20064;-76
2022/01/26 13:26:53;;;;;;;38.55;12.85;;;6.20;99.90;;;;;;5094693;28;20037;-78
2022/01/26 13:29:38;;;;;;;36.72;12.65;;;6.40;99.90;;;;;;5071432;28;20032;-78
2022/01/26 13:38:31;;;;;;;38.05;13.25;;;5.50;99.90;;;;;;5090516;28;20039;-77
2022/01/26 13:54:54;;;;;;;30.17;11.77;;;5.70;99.90;;;;;;5086243;28;20499;-77
2022/01/26 13:57:43;;;;;;;32.53;11.90;;;5.50;99.90;;;;;;5071622;28;20526;-77
2022/01/26 14:00:15;;;;;;;33.40;12.50;;;6.50;99.90;;;;;;5072720;28;20052;-77
2022/01/26 14:02:52;;;;;;;37.95;10.38;;;6.20;99.90;;;;;;5068099;28;20048;-77
2022/01/26 14:05:31;;;;;;;25.08;10.10;;;5.60;99.90;;;;;;5081849;28;20052;-77
2022/01/26 14:08:03;;;;;;;34.15;12.07;;;7.60;99.90;;;;;;5088526;28;20093;-77
2022/01/26 14:10:36;;;;;;;35.50;14.10;;;5.70;99.90;;;;;;5069195;28;20485;-77
2022/01/26 14:13:07;;;;;;;42.65;11.82;;;5.60;99.90;;;;;;5070375;28;20132;-77
2022/01/26 14:15:46;;;;;;;35.55;14.38;;;5.40;99.90;;;;;;5074011;28;20040;-77
2022/01/26 14:20:53;;;;;;;35.25;13.65;;;6.20;99.90;;;;;;5088083;28;20075;-76
2022/01/26 14:25:57;;;;;;;37.58;13.10;;;6.90;99.90;;;;;;5091603;28;20530;-77
2022/01/26 14:28:32;;;;;;;36.22;12.60;;;6.00;99.90;;;;;;5068568;28;20048;-77
2022/01/26 14:34:09;;;;;;;42.45;13.90;;;5.50;99.90;;;;;;5091496;28;20567;-77
2022/01/26 14:36:52;;;;;;;32.95;12.38;;;5.00;99.90;;;;;;5075474;28;20517;-77
2022/01/26 14:39:42;;;;;;;32.80;11.60;;;5.40;99.90;;;;;;5082239;28;20090;-77
2022/01/26 14:56:14;;;;;;;41.95;14.02;;;6.00;99.90;;;;;;5084608;28;20045;-77
2022/01/26 15:43:13;;;;;;;40.15;13.02;;;5.10;99.90;;;;;;5088682;28;20486;-77
2022/01/26 15:49:02;;;;;;;29.08;11.10;;;7.10;99.90;;;;;;5084194;28;20569;-77
2022/01/26 15:57:31;;;;;;;42.40;13.02;;;5.20;99.90;;;;;;5084312;28;20072;-77
2022/01/26 16:05:57;;;;;;;38.78;13.55;;;4.50;99.90;;;;;;5091144;28;20044;-78
2022/01/26 16:20:13;;;;;;;43.10;13.30;;;5.50;99.90;;;;;;5051979;28;20042;-77
2022/01/26 17:02:07;;;;;;;27.15;10.50;;;5.00;99.90;;;;;;5089410;28;19963;-78
2022/01/26 17:46:39;;;;;;;45.92;13.02;;;5.60;99.90;;;;;;5089069;28;20267;-79
2022/01/26 17:55:14;;;;;;;41.55;13.60;;;5.30;99.90;;;;;;5097353;28;20923;-77
2022/01/26 18:39:31;;;;;;;41.05;14.93;;;3.80;99.90;;;;;;5083348;28;20044;-77
2022/01/26 18:50:41;;;;;;;29.98;12.13;;;5.80;99.90;;;;;;5090714;28;20056;-81
2022/01/26 18:53:13;;;;;;;47.80;14.75;;;4.10;99.90;;;;;;5072340;28;20119;-77
2022/01/26 18:55:41;;;;;;;42.60;16.73;;;4.00;99.90;;;;;;5060302;28;20044;-78
2022/01/26 18:58:10;;;;;;;41.80;15.35;;;4.30;99.90;;;;;;5063973;28;20537;-78
2022/01/26 19:00:43;;;;;;;42.90;12.75;;;5.20;99.90;;;;;;5066901;28;20109;-78
2022/01/26 19:03:13;;;;;;;37.75;12.50;;;5.50;99.90;;;;;;5087074;28;20044;-77
2022/01/26 19:05:39;;;;;;;42.95;13.50;;;5.10;99.90;;;;;;5085964;28;20071;-77
2022/01/26 19:08:14;;;;;;;46.17;14.02;;;4.90;99.90;;;;;;5087857;28;20529;-77
2022/01/26 19:10:46;;;;;;;41.85;13.75;;;5.30;99.90;;;;;;5071346;28;20130;-77
2022/01/26 19:13:14;;;;;;;39.28;16.40;;;4.20;99.90;;;;;;5087324;28;20044;-77
2022/01/26 19:15:51;;;;;;;35.97;15.00;;;4.80;99.90;;;;;;5088537;28;20052;-77
2022/01/26 19:18:41;;;;;;;47.72;13.70;;;4.90;99.90;;;;;;5065247;28;20040;-78
2022/01/26 19:21:20;;;;;;;41.70;15.05;;;4.80;99.90;;;;;;5068170;28;20039;-76
2022/01/26 19:26:35;;;;;;;40.40;14.10;;;5.90;99.90;;;;;;5065663;28;20040;-79
2022/01/26 19:43:53;;;;;;;43.70;14.30;;;6.50;99.90;;;;;;5066604;28;20049;-78
2022/01/26 19:52:06;;;;;;;34.70;12.15;;;5.00;99.90;;;;;;5063641;28;20124;-77
2022/01/26 19:54:30;;;;;;;44.45;12.68;;;5.10;99.90;;;;;;5064524;28;20048;-78
2022/01/26 19:57:08;;;;;;;40.00;11.85;;;4.70;99.90;;;;;;5070118;28;20041;-78
2022/01/26 19:59:47;;;;;;;34.13;12.63;;;5.70;99.90;;;;;;5064270;28;20037;-79